createdAt,value
2019-03-15T00:01:50.248Z,97678.19
2019-03-15T00:04:19.243Z,97675.56
2019-03-15T00:06:48.096Z,97673.04
2019-03-15T00:09:17.007Z,97666.95
2019-03-15T00:11:45.929Z,97665.98
2019-03-15T00:14:15.061Z,97664.82
2019-03-15T00:16:44.011Z,97666.98
2019-03-15T00:19:12.983Z,97658.66
2019-03-15T00:21:41.854Z,97662.83
2019-03-15T00:24:11.691Z,97661.37
2019-03-15T00:26:40.588Z,97661.52
2019-03-15T00:29:09.479Z,97667.67
2019-03-15T00:31:38.375Z,97664.97
2019-03-15T00:34:07.249Z,97668.37
2019-03-15T00:36:36.159Z,97663.27
2019-03-15T00:39:06.427Z,97664.34
2019-03-15T00:41:35.330Z,97667.48
2019-03-15T00:44:04.181Z,97667.23
2019-03-15T00:46:33.088Z,97669.85
2019-03-15T00:49:01.971Z,97670.52
2019-03-15T00:51:30.818Z,97658.83
2019-03-15T00:53:59.729Z,97665.09
2019-03-15T00:56:28.569Z,97667.36
2019-03-15T00:58:57.508Z,97673.76
2019-03-15T01:01:26.347Z,97665.66
2019-03-15T01:03:55.247Z,97671.50
2019-03-15T01:06:24.105Z,97669.95
2019-03-15T01:08:52.999Z,97675.42
2019-03-15T01:11:21.954Z,97671.58
2019-03-15T01:13:50.804Z,97672.67
2019-03-15T01:16:19.683Z,97673.00
2019-03-15T01:18:48.514Z,97680.05
2019-03-15T01:21:17.404Z,97682.20
2019-03-15T01:23:46.244Z,97678.13
2019-03-15T01:26:15.124Z,97678.19
2019-03-15T01:28:43.977Z,97678.05
2019-03-15T01:31:12.915Z,97683.98
2019-03-15T01:33:41.768Z,97684.59
2019-03-15T01:36:10.613Z,97681.35
2019-03-15T01:38:39.575Z,97678.65
2019-03-15T01:41:08.426Z,97679.06
2019-03-15T01:43:38.002Z,97685.06
2019-03-15T01:46:08.416Z,97687.30
2019-03-15T01:48:37.391Z,97689.13
2019-03-15T01:51:06.248Z,97689.78
2019-03-15T01:53:35.082Z,97694.69
2019-03-15T01:56:04.057Z,97691.59
2019-03-15T01:58:32.895Z,97696.02
2019-03-15T02:01:01.779Z,97698.73
2019-03-15T02:03:30.614Z,97699.56
2019-03-15T02:05:59.516Z,97707.45
2019-03-15T02:08:28.340Z,97696.02
2019-03-15T02:10:57.245Z,97700.66
2019-03-15T02:13:26.080Z,97707.66
2019-03-15T02:15:54.930Z,97701.97
2019-03-15T02:18:23.835Z,97711.68
2019-03-15T02:20:53.316Z,97715.47
2019-03-15T02:23:22.295Z,97723.24
2019-03-15T02:25:51.193Z,97716.84
2019-03-15T02:28:20.073Z,97723.33
2019-03-15T02:30:48.933Z,97731.05
2019-03-15T02:33:17.943Z,97729.73
2019-03-15T02:35:47.230Z,97736.20
2019-03-15T02:38:16.415Z,97740.81
2019-03-15T02:40:45.317Z,97746.81
2019-03-15T02:43:14.150Z,97742.27
2019-03-15T02:45:43.024Z,97745.41
2019-03-15T02:48:13.441Z,97746.53
2019-03-15T02:50:42.586Z,97755.52
2019-03-15T02:53:11.486Z,97748.91
2019-03-15T02:55:40.449Z,97754.01
2019-03-15T02:58:09.299Z,97762.63
2019-03-15T03:00:38.131Z,97765.16
2019-03-15T03:03:06.995Z,97778.30
2019-03-15T03:05:35.948Z,97774.73
2019-03-15T03:08:04.814Z,97787.81
2019-03-15T03:10:33.670Z,97787.36
2019-03-15T03:13:02.563Z,97796.53
2019-03-15T03:15:31.423Z,97808.23
2019-03-15T03:18:00.289Z,97804.41
2019-03-15T03:20:29.259Z,97799.75
2019-03-15T03:22:58.101Z,97805.97
2019-03-15T03:25:26.983Z,97804.61
2019-03-15T03:27:55.885Z,97811.54
2019-03-15T03:30:24.790Z,97814.48
2019-03-15T03:32:53.692Z,97827.41
2019-03-15T03:35:22.588Z,97826.03
2019-03-15T03:37:51.502Z,97834.78
2019-03-15T03:40:21.134Z,97845.34
2019-03-15T03:42:50.312Z,97836.91
2019-03-15T03:45:19.142Z,97834.48
2019-03-15T03:47:48.009Z,97868.33
2019-03-15T03:50:16.862Z,97859.84
2019-03-15T03:52:45.764Z,97850.38
2019-03-15T03:55:14.597Z,97875.20
2019-03-15T03:57:43.629Z,97866.72
2019-03-15T04:00:16.773Z,97870.02
2019-03-15T04:02:45.699Z,97878.17
2019-03-15T04:05:14.679Z,97874.11
2019-03-15T04:07:43.632Z,97883.64
2019-03-15T04:10:13.318Z,97902.30
2019-03-15T04:12:42.226Z,97900.20
2019-03-15T04:15:12.223Z,97904.27
2019-03-15T04:17:41.088Z,97906.07
2019-03-15T04:20:11.538Z,97923.95
2019-03-15T04:22:40.464Z,97924.33
2019-03-15T04:25:10.925Z,97934.89
2019-03-15T04:27:39.818Z,97933.72
2019-03-15T04:30:11.389Z,97950.95
2019-03-15T04:32:40.283Z,97952.38
2019-03-15T04:35:09.355Z,97942.99
2019-03-15T04:37:38.259Z,97946.43
2019-03-15T04:40:10.392Z,97960.59
2019-03-15T04:42:39.355Z,97967.70
2019-03-15T04:45:09.093Z,97967.83
2019-03-15T04:47:37.967Z,97977.51
2019-03-15T04:50:07.939Z,97988.83
2019-03-15T04:52:36.880Z,97971.72
2019-03-15T04:55:06.866Z,97985.36
2019-03-15T04:57:35.730Z,97982.91
2019-03-15T05:00:06.768Z,97995.79
2019-03-15T05:02:35.614Z,97999.77
2019-03-15T05:05:05.983Z,98011.05
2019-03-15T05:07:34.961Z,98005.13
2019-03-15T05:10:05.205Z,98017.72
2019-03-15T05:12:34.076Z,98006.91
2019-03-15T05:15:02.925Z,98054.77
2019-03-15T05:17:31.835Z,98026.12
2019-03-15T05:20:00.736Z,98047.06
2019-03-15T05:22:29.576Z,98038.00
2019-03-15T05:24:58.477Z,98041.20
2019-03-15T05:27:27.319Z,98043.45
2019-03-15T05:29:56.272Z,98047.17
2019-03-15T05:32:25.115Z,98032.34
2019-03-15T05:34:54.859Z,98039.69
2019-03-15T05:37:23.704Z,98051.09
2019-03-15T05:39:52.539Z,98051.09
2019-03-15T05:42:21.418Z,98049.20
2019-03-15T05:44:50.265Z,98053.59
2019-03-15T05:47:19.159Z,98075.70
2019-03-15T05:49:48.020Z,98076.45
2019-03-15T05:52:16.968Z,98081.81
2019-03-15T05:54:45.846Z,98083.50
2019-03-15T05:57:14.705Z,98092.47
2019-03-15T05:59:43.811Z,98095.75
2019-03-15T06:02:12.727Z,98099.81
2019-03-15T06:04:41.564Z,98103.46
2019-03-15T06:07:10.462Z,98102.48
2019-03-15T06:09:39.304Z,98099.53
2019-03-15T06:12:08.244Z,98121.34
2019-03-15T06:14:37.104Z,98115.38
2019-03-15T06:17:05.939Z,98118.59
2019-03-15T06:19:34.839Z,98125.73
2019-03-15T06:22:03.699Z,98132.13
2019-03-15T06:24:32.755Z,98123.97
2019-03-15T06:27:01.651Z,98130.56
2019-03-15T06:29:30.520Z,98135.17
2019-03-15T06:31:59.394Z,98140.97
2019-03-15T06:34:28.240Z,98139.36
2019-03-15T06:36:57.120Z,98144.19
2019-03-15T06:39:25.970Z,98145.03
2019-03-15T06:41:54.856Z,98143.92
2019-03-15T06:44:23.704Z,98143.45
2019-03-15T06:46:52.614Z,98152.73
2019-03-15T06:49:21.496Z,98159.11
2019-03-15T06:51:50.344Z,98157.25
2019-03-15T06:54:19.219Z,98169.25
2019-03-15T06:56:48.064Z,98167.59
2019-03-15T06:59:16.973Z,98168.27
2019-03-15T07:01:45.817Z,98168.48
2019-03-15T07:04:14.706Z,98178.42
2019-03-15T07:06:43.661Z,98181.05
2019-03-15T07:09:12.507Z,98183.78
2019-03-15T07:11:41.416Z,98184.47
2019-03-15T07:14:10.281Z,98191.41
2019-03-15T07:16:39.154Z,98192.45
2019-03-15T07:19:08.096Z,98211.30
2019-03-15T07:21:37.112Z,98207.95
2019-03-15T07:24:06.000Z,98211.34
2019-03-15T07:26:34.866Z,98216.95
2019-03-15T07:29:03.755Z,98212.31
2019-03-15T07:31:32.619Z,98205.34
2019-03-15T07:34:01.574Z,98214.63
2019-03-15T07:36:30.458Z,98224.45
2019-03-15T07:38:59.308Z,98228.23
2019-03-15T07:41:28.218Z,98223.36
2019-03-15T07:43:57.069Z,98219.17
2019-03-15T07:46:25.973Z,98223.70
2019-03-15T07:48:54.819Z,98243.02
2019-03-15T07:51:23.734Z,98244.23
2019-03-15T07:53:52.569Z,98225.98
2019-03-15T07:56:21.419Z,98243.52
2019-03-15T07:58:50.320Z,98231.95
2019-03-15T08:01:19.159Z,98225.89
2019-03-15T08:03:48.329Z,98224.05
2019-03-15T08:06:17.184Z,98224.59
2019-03-15T08:08:46.257Z,98226.23
2019-03-15T08:11:15.124Z,98221.78
2019-03-15T08:13:44.054Z,98214.59
2019-03-15T08:16:13.226Z,98231.27
2019-03-15T08:18:42.074Z,98214.98
2019-03-15T08:21:10.969Z,98237.55
2019-03-15T08:23:39.814Z,98231.78
2019-03-15T08:26:08.693Z,98231.91
2019-03-15T08:28:37.539Z,98238.75
2019-03-15T08:31:06.438Z,98245.23
2019-03-15T08:33:35.291Z,98247.21
2019-03-15T08:36:04.255Z,98255.62
2019-03-15T08:38:46.227Z,98256.63
2019-03-15T08:41:03.920Z,98259.41
2019-03-15T08:43:32.904Z,98271.99
2019-03-15T08:46:03.059Z,98293.48
2019-03-15T08:48:32.359Z,98265.13
2019-03-15T08:51:01.260Z,98260.70
2019-03-15T08:53:30.170Z,98281.97
2019-03-15T08:55:59.050Z,98276.18
2019-03-15T08:58:30.791Z,98278.86
2019-03-15T09:00:59.784Z,98281.30
2019-03-15T09:03:28.667Z,98297.24
2019-03-15T09:05:57.614Z,98284.45
2019-03-15T09:08:26.453Z,98303.31
2019-03-15T09:10:55.462Z,98296.74
2019-03-15T09:13:24.315Z,98296.66
2019-03-15T09:15:53.223Z,98320.45
2019-03-15T09:18:22.060Z,98316.60
2019-03-15T09:20:50.909Z,98291.06
2019-03-15T09:23:19.825Z,98297.36
2019-03-15T09:25:48.724Z,98325.58
2019-03-15T09:28:17.598Z,98299.81
2019-03-15T09:30:46.464Z,98300.77
2019-03-15T09:33:15.362Z,98307.67
2019-03-15T09:35:44.208Z,98289.89
2019-03-15T09:38:13.124Z,98302.20
2019-03-15T09:40:41.967Z,98307.03
2019-03-15T09:43:10.819Z,98309.61
2019-03-15T09:45:39.700Z,98307.27
2019-03-15T09:48:08.544Z,98313.94
2019-03-15T09:50:50.719Z,98289.18
2019-03-15T09:53:08.029Z,98322.61
2019-03-15T09:55:36.944Z,98309.37
2019-03-15T09:58:05.787Z,98316.27
2019-03-15T10:00:34.750Z,98294.80
2019-03-15T10:03:03.643Z,98320.68
2019-03-15T10:05:32.560Z,98312.99
2019-03-15T10:08:01.485Z,98321.97
2019-03-15T10:10:30.358Z,98326.47
2019-03-15T10:13:05.720Z,98325.61
2019-03-15T10:15:29.860Z,98319.66
2019-03-15T10:17:58.764Z,98322.64
2019-03-15T10:20:27.618Z,98307.25
2019-03-15T10:23:05.372Z,98312.31
2019-03-15T10:25:27.059Z,98309.84
2019-03-15T10:27:55.894Z,98305.99
2019-03-15T10:30:24.804Z,98300.73
2019-03-15T10:32:53.639Z,98308.28
2019-03-15T10:35:22.534Z,98291.09
2019-03-15T10:37:51.406Z,98321.92
2019-03-15T10:40:21.629Z,98325.80
2019-03-15T10:42:50.480Z,98328.78
2019-03-15T10:45:19.341Z,98337.48
2019-03-15T10:47:48.250Z,98331.29
2019-03-15T10:50:18.527Z,98338.53
2019-03-15T10:52:47.404Z,98329.37
2019-03-15T10:55:16.278Z,98336.70
2019-03-15T10:57:45.179Z,98331.22
2019-03-15T11:00:19.230Z,98341.86
2019-03-15T11:02:48.139Z,98335.97
2019-03-15T11:05:16.976Z,98338.42
2019-03-15T11:07:45.834Z,98324.67
2019-03-15T11:10:14.922Z,98338.16
2019-03-15T11:12:43.769Z,98317.22
2019-03-15T11:15:14.250Z,98323.05
2019-03-15T11:17:43.110Z,98351.52
2019-03-15T11:20:13.214Z,98324.39
2019-03-15T11:22:42.036Z,98314.10
2019-03-15T11:25:12.820Z,98314.31
2019-03-15T11:27:41.700Z,98312.12
2019-03-15T11:30:14.882Z,98306.46
2019-03-15T11:32:43.781Z,98309.97
2019-03-15T11:35:13.414Z,98308.53
2019-03-15T11:37:42.411Z,98313.38
2019-03-15T11:40:14.552Z,98316.98
2019-03-15T11:42:43.882Z,98305.84
2019-03-15T11:45:16.016Z,98310.17
2019-03-15T11:48:01.846Z,98313.41
2019-03-15T11:50:19.979Z,98314.48
2019-03-15T11:52:48.833Z,98319.30
2019-03-15T11:55:17.840Z,98325.27
2019-03-15T11:57:46.810Z,98329.21
2019-03-15T12:00:19.177Z,98320.44
2019-03-15T12:02:48.054Z,98317.86
2019-03-15T12:05:16.956Z,98306.28
2019-03-15T12:07:45.861Z,98318.42
2019-03-15T12:10:15.732Z,98309.80
2019-03-15T12:12:44.710Z,98325.98
2019-03-15T12:15:15.935Z,98319.22
2019-03-15T12:17:44.844Z,98316.31
2019-03-15T12:20:14.582Z,98323.34
2019-03-15T12:22:43.494Z,98319.23
2019-03-15T12:25:13.071Z,98326.78
2019-03-15T12:27:42.008Z,98315.55
2019-03-15T12:30:12.868Z,98307.11
2019-03-15T12:32:41.931Z,98300.38
2019-03-15T12:35:14.616Z,98299.34
2019-03-15T12:37:43.497Z,98298.63
2019-03-15T12:40:16.211Z,98306.00
2019-03-15T12:42:45.255Z,98308.40
2019-03-15T12:45:16.023Z,98298.38
2019-03-15T12:47:45.023Z,98298.45
2019-03-15T12:50:14.932Z,98304.86
2019-03-15T12:52:48.539Z,98309.25
2019-03-15T12:55:15.705Z,98309.66
2019-03-15T12:57:44.734Z,98295.28
2019-03-15T13:00:20.632Z,98298.14
2019-03-15T13:02:49.691Z,98300.61
2019-03-15T13:05:18.773Z,98299.94
2019-03-15T13:07:47.939Z,98303.14
2019-03-15T13:10:19.218Z,98306.06
2019-03-15T13:12:48.294Z,98297.52
2019-03-15T13:15:17.741Z,98286.22
2019-03-15T13:17:46.932Z,98269.83
2019-03-15T13:20:17.540Z,98280.19
2019-03-15T13:22:46.480Z,98275.48
2019-03-15T13:25:15.653Z,98297.00
2019-03-15T13:27:44.781Z,98290.08
2019-03-15T13:30:17.519Z,98277.09
2019-03-15T13:32:46.651Z,98264.16
2019-03-15T13:35:15.817Z,98266.23
2019-03-15T13:37:44.933Z,98261.25
2019-03-15T13:40:20.371Z,98250.48
2019-03-15T13:42:49.536Z,98255.77
2019-03-15T13:45:18.658Z,98282.48
2019-03-15T13:47:47.777Z,98270.16
2019-03-15T13:50:20.941Z,98254.08
2019-03-15T13:52:50.215Z,98270.45
2019-03-15T13:55:19.496Z,98257.25
2019-03-15T13:57:48.694Z,98257.34
2019-03-15T14:00:19.828Z,98265.66
2019-03-15T14:02:49.014Z,98264.34
2019-03-15T14:05:18.178Z,98256.03
2019-03-15T14:07:47.376Z,98253.22
2019-03-15T14:10:17.428Z,98260.00
2019-03-15T14:12:46.782Z,98253.32
2019-03-15T14:15:22.175Z,98266.80
2019-03-15T14:17:51.457Z,98252.63
2019-03-15T14:20:20.874Z,98250.76
2019-03-15T14:22:50.294Z,98243.89
2019-03-15T14:25:22.014Z,98254.69
2019-03-15T14:27:51.334Z,98236.33
2019-03-15T14:30:20.574Z,98232.70
2019-03-15T14:32:49.694Z,98227.64
2019-03-15T14:35:18.974Z,98247.00
2019-03-15T14:37:48.271Z,98226.34
2019-03-15T14:40:17.724Z,98224.80
2019-03-15T14:42:48.374Z,98218.95
2019-03-15T14:45:17.690Z,98211.33
2019-03-15T14:47:46.934Z,98214.14
2019-03-15T14:50:16.334Z,98201.52
2019-03-15T14:52:45.494Z,98198.90
2019-03-15T14:55:15.918Z,98206.80
2019-03-15T14:57:52.420Z,98205.19
2019-03-15T15:00:19.625Z,98201.70
2019-03-15T15:02:48.895Z,98206.14
2019-03-15T15:05:18.253Z,98210.95
2019-03-15T15:07:47.664Z,98206.58
2019-03-15T15:10:19.774Z,98208.20
2019-03-15T15:12:49.013Z,98190.91
2019-03-15T15:15:21.469Z,98189.98
2019-03-15T15:17:50.693Z,98194.81
2019-03-15T15:20:19.936Z,98192.94
2019-03-15T15:22:49.172Z,98198.78
2019-03-15T15:25:18.879Z,98214.51
2019-03-15T15:27:48.053Z,98198.48
2019-03-15T15:30:18.533Z,98198.29
2019-03-15T15:32:47.738Z,98190.56
2019-03-15T15:35:17.014Z,98184.53
2019-03-15T15:37:46.137Z,98184.16
2019-03-15T15:40:21.732Z,98180.28
2019-03-15T15:42:51.053Z,98173.61
2019-03-15T15:45:20.213Z,98176.44
2019-03-15T15:47:49.451Z,98176.42
2019-03-15T15:50:18.692Z,98164.08
2019-03-15T15:52:47.894Z,98158.71
2019-03-15T15:55:17.692Z,98152.20
2019-03-15T15:57:46.937Z,98145.33
2019-03-15T16:00:17.293Z,98154.47
2019-03-15T16:02:46.505Z,98148.32
2019-03-15T16:05:15.738Z,98137.48
2019-03-15T16:07:44.857Z,98135.50
2019-03-15T16:10:17.677Z,98144.84
2019-03-15T16:12:45.824Z,98140.52
2019-03-15T16:15:16.177Z,98137.20
2019-03-15T16:17:46.039Z,98131.65
2019-03-15T16:20:15.588Z,98139.33
2019-03-15T16:22:44.754Z,98144.97
2019-03-15T16:25:14.005Z,98138.70
2019-03-15T16:27:43.217Z,98142.59
2019-03-15T16:30:19.746Z,98120.20
2019-03-15T16:32:48.859Z,98116.70
2019-03-15T16:35:17.981Z,98102.45
2019-03-15T16:37:47.244Z,98092.31
2019-03-15T16:40:16.982Z,98084.83
2019-03-15T16:42:46.216Z,98087.23
2019-03-15T16:45:17.982Z,98082.75
2019-03-15T16:47:47.178Z,98089.91
2019-03-15T16:50:16.205Z,98096.69
2019-03-15T16:52:45.418Z,98103.91
2019-03-15T16:55:14.650Z,98105.23
2019-03-15T16:57:43.770Z,98099.48
2019-03-15T17:00:14.833Z,98100.53
2019-03-15T17:02:43.977Z,98093.11
2019-03-15T17:05:14.027Z,98090.45
2019-03-15T17:07:43.419Z,98082.34
2019-03-15T17:10:17.493Z,98077.92
2019-03-15T17:12:46.660Z,98076.80
2019-03-15T17:15:26.378Z,98082.34
2019-03-15T17:17:55.537Z,98075.62
2019-03-15T17:20:24.658Z,98086.16
2019-03-15T17:22:53.779Z,98069.51
2019-03-15T17:25:22.977Z,98063.47
2019-03-15T17:27:52.261Z,98072.04
2019-03-15T17:30:21.536Z,98068.16
2019-03-15T17:32:50.698Z,98070.05
2019-03-15T17:35:22.897Z,98063.01
2019-03-15T17:37:52.098Z,98060.02
2019-03-15T17:40:21.702Z,98066.84
2019-03-15T17:42:51.099Z,98077.00
2019-03-15T17:45:20.299Z,98065.66
2019-03-15T17:47:49.457Z,98070.89
2019-03-15T17:50:20.056Z,98073.29
2019-03-15T17:52:49.219Z,98082.51
2019-03-15T17:55:18.817Z,98073.45
2019-03-15T17:57:47.978Z,98070.52
2019-03-15T18:00:38.137Z,98057.96
2019-03-15T18:03:19.993Z,98054.72
2019-03-15T18:05:39.378Z,98056.13
2019-03-15T18:08:09.780Z,98053.30
2019-03-15T18:10:39.103Z,98054.24
2019-03-15T18:13:08.297Z,98053.94
2019-03-15T18:15:39.001Z,98043.10
2019-03-15T18:18:08.100Z,98045.73
2019-03-15T18:20:37.298Z,98047.63
2019-03-15T18:23:06.579Z,98038.38
2019-03-15T18:25:35.781Z,98031.05
2019-03-15T18:28:04.899Z,98031.95
2019-03-15T18:30:34.103Z,98033.31
2019-03-15T18:33:03.340Z,98031.16
2019-03-15T18:35:34.182Z,98023.42
2019-03-15T18:38:05.180Z,98020.00
2019-03-15T18:40:34.419Z,98023.54
2019-03-15T18:43:03.659Z,98003.70
2019-03-15T18:45:32.938Z,97995.59
2019-03-15T18:48:02.137Z,97983.72
2019-03-15T18:50:31.458Z,97962.66
2019-03-15T18:53:00.626Z,97950.20
2019-03-15T18:55:29.898Z,97946.83
2019-03-15T18:57:59.138Z,97939.95
2019-03-15T19:00:28.398Z,97940.53
2019-03-15T19:02:59.960Z,97945.89
2019-03-15T19:05:28.537Z,97941.64
2019-03-15T19:07:57.658Z,97928.95
2019-03-15T19:10:26.870Z,97925.17
2019-03-15T19:12:56.178Z,97928.21
2019-03-15T19:15:25.378Z,97912.83
2019-03-15T19:17:54.697Z,97920.66
2019-03-15T19:20:23.979Z,97917.02
2019-03-15T19:22:53.281Z,97912.47
2019-03-15T19:25:22.490Z,97933.41
2019-03-15T19:27:51.703Z,97927.30
2019-03-15T19:30:20.938Z,97903.16
2019-03-15T19:32:50.217Z,97905.31
2019-03-15T19:35:19.497Z,97911.52
2019-03-15T19:37:48.699Z,97901.16
2019-03-15T19:40:19.066Z,97895.83
2019-03-15T19:42:48.299Z,97901.47
2019-03-15T19:45:17.942Z,97902.74
2019-03-15T19:47:47.259Z,97888.81
2019-03-15T19:50:23.017Z,97888.27
2019-03-15T19:52:52.419Z,97890.90
2019-03-15T19:55:21.617Z,97886.85
2019-03-15T19:57:50.868Z,97890.90
2019-03-15T20:00:25.019Z,97877.48
2019-03-15T20:02:54.419Z,97883.23
2019-03-15T20:05:23.739Z,97899.04
2019-03-15T20:07:53.152Z,97919.16
2019-03-15T20:10:22.459Z,97926.34
2019-03-15T20:12:51.778Z,97925.94
2019-03-15T20:15:20.966Z,97916.34
2019-03-15T20:17:50.182Z,97915.11
2019-03-15T20:20:20.424Z,97903.69
2019-03-15T20:22:49.698Z,97909.75
2019-03-15T20:25:19.780Z,97892.45
2019-03-15T20:27:49.140Z,97895.28
2019-03-15T20:30:26.660Z,97885.05
2019-03-15T20:32:54.779Z,97889.06
2019-03-15T20:35:23.983Z,97893.59
2019-03-15T20:37:53.140Z,97893.03
2019-03-15T20:40:22.621Z,97892.81
2019-03-15T20:42:51.803Z,97891.77
2019-03-15T20:45:24.733Z,97896.56
2019-03-15T20:47:54.019Z,97903.86
2019-03-15T20:50:23.259Z,97910.37
2019-03-15T20:53:07.245Z,97900.72
2019-03-15T20:55:28.440Z,97876.67
2019-03-15T20:57:56.124Z,97861.30
2019-03-15T21:00:35.391Z,97837.92
2019-03-15T21:02:56.339Z,97832.45
2019-03-15T21:05:25.579Z,97834.55
2019-03-15T21:07:54.818Z,97847.77
2019-03-15T21:10:24.019Z,97842.88
2019-03-15T21:12:53.299Z,97841.70
2019-03-15T21:15:22.607Z,97835.06
2019-03-15T21:17:51.819Z,97827.52
2019-03-15T21:20:22.848Z,97822.26
2019-03-15T21:22:52.407Z,97821.22
2019-03-15T21:25:21.579Z,97812.92
2019-03-15T21:27:54.200Z,97807.55
2019-03-15T21:30:25.698Z,97839.92
2019-03-15T21:32:56.179Z,97831.73
2019-03-15T21:35:25.427Z,97848.21
2019-03-15T21:37:54.578Z,97842.58
2019-03-15T21:40:23.998Z,97867.30
2019-03-15T21:42:53.057Z,97903.00
2019-03-15T21:45:22.059Z,97933.02
2019-03-15T21:47:51.219Z,97913.00
2019-03-15T21:50:21.727Z,97910.84
2019-03-15T21:52:50.875Z,97897.05
2019-03-15T21:55:19.986Z,97901.98
2019-03-15T21:57:48.940Z,97897.52
2019-03-15T22:00:19.862Z,97886.22
2019-03-15T22:02:49.101Z,97874.52
2019-03-15T22:05:18.141Z,97896.91
2019-03-15T22:07:47.018Z,97885.26
2019-03-15T22:10:17.129Z,97847.66
2019-03-15T22:12:46.321Z,97863.53
2019-03-15T22:15:15.537Z,97881.11
2019-03-15T22:17:44.656Z,97869.75
2019-03-15T22:20:17.940Z,97868.80
2019-03-15T22:22:46.943Z,97863.64
2019-03-15T22:25:15.950Z,97835.98
2019-03-15T22:27:45.025Z,97806.08
2019-03-15T22:30:17.219Z,97836.06
2019-03-15T22:32:46.379Z,97838.91
2019-03-15T22:35:16.682Z,97850.55
2019-03-15T22:37:45.708Z,97831.98
2019-03-15T22:40:14.979Z,97806.52
2019-03-15T22:42:43.859Z,97859.38
2019-03-15T22:45:14.060Z,97826.64
2019-03-15T22:47:43.193Z,97845.91
2019-03-15T22:50:13.821Z,97878.53
2019-03-15T22:52:42.901Z,97809.58
2019-03-15T22:55:12.180Z,97822.13
2019-03-15T22:57:41.299Z,97818.73
2019-03-15T23:00:21.859Z,97812.53
2019-03-15T23:02:51.121Z,97818.30
2019-03-15T23:05:20.140Z,97819.18
2019-03-15T23:07:49.277Z,97823.50
2019-03-15T23:10:18.219Z,97826.77
2019-03-15T23:12:47.059Z,97849.13
2019-03-15T23:15:16.141Z,97867.87
2019-03-15T23:17:45.021Z,97867.76
2019-03-15T23:20:14.743Z,97886.53
2019-03-15T23:22:43.779Z,97876.96
2019-03-15T23:25:12.963Z,97863.03
2019-03-15T23:27:41.874Z,97880.17
2019-03-15T23:30:13.266Z,97884.48
2019-03-15T23:32:42.302Z,97878.52
2019-03-15T23:35:12.356Z,97885.59
2019-03-15T23:37:41.570Z,97886.64
2019-03-15T23:40:12.664Z,97897.58
2019-03-15T23:42:42.023Z,97907.41
2019-03-15T23:45:11.699Z,97902.32
2019-03-15T23:47:40.699Z,97914.36
2019-03-15T23:50:12.015Z,97923.67
2019-03-15T23:52:41.003Z,97921.72
2019-03-15T23:55:10.099Z,97920.98
2019-03-15T23:57:39.802Z,97920.46
